createdAt,value
2023-02-14T00:01:41.588Z,10.23
2023-02-14T00:04:09.746Z,11.97
2023-02-14T00:06:38.960Z,11.00
2023-02-14T00:09:08.608Z,11.17
2023-02-14T00:11:38.475Z,12.67
2023-02-14T00:14:24.776Z,11.80
2023-02-14T00:16:52.928Z,14.17
2023-02-14T00:19:22.811Z,12.53
2023-02-14T00:21:51.569Z,13.30
2023-02-14T00:24:22.571Z,11.93
2023-02-14T00:26:53.350Z,13.23
2023-02-14T00:29:24.566Z,10.93
2023-02-14T00:31:53.349Z,13.37
2023-02-14T00:34:21.981Z,11.80
2023-02-14T00:36:50.358Z,14.67
2023-02-14T00:39:20.229Z,11.87
2023-02-14T00:41:48.564Z,14.17
2023-02-14T00:44:19.461Z,11.87
2023-02-14T00:46:47.501Z,12.33
2023-02-14T00:49:15.613Z,14.47
2023-02-14T00:51:43.769Z,13.97
2023-02-14T00:54:11.839Z,11.60
2023-02-14T00:56:39.922Z,13.27
2023-02-14T00:59:10.756Z,15.63
2023-02-14T01:01:40.550Z,13.47
2023-02-14T01:04:09.216Z,15.67
2023-02-14T01:06:37.717Z,13.57
2023-02-14T01:09:06.323Z,13.23
2023-02-14T01:11:34.583Z,11.67
2023-02-14T01:14:04.278Z,13.43
2023-02-14T01:16:32.458Z,15.00
2023-02-14T01:19:27.467Z,12.43
2023-02-14T01:21:55.525Z,11.80
2023-02-14T01:24:25.160Z,14.73
2023-02-14T01:26:53.205Z,11.63
2023-02-14T01:29:21.238Z,12.43
2023-02-14T01:31:49.412Z,11.73
2023-02-14T01:34:18.669Z,14.27
2023-02-14T01:36:49.585Z,11.63
2023-02-14T01:39:18.519Z,10.90
2023-02-14T01:41:48.940Z,14.20
2023-02-14T01:45:00.490Z,16.87
2023-02-14T01:47:31.997Z,16.73
2023-02-14T01:50:05.787Z,12.87
2023-02-14T01:52:39.523Z,13.53
2023-02-14T01:55:15.132Z,19.07
2023-02-14T01:57:49.456Z,18.83
2023-02-14T02:00:37.091Z,19.97
2023-02-14T02:03:13.381Z,19.17
2023-02-14T02:05:48.077Z,16.27
2023-02-14T02:08:20.000Z,16.20
2023-02-14T02:10:48.348Z,15.00
2023-02-14T02:13:23.699Z,17.97
2023-02-14T02:16:09.170Z,18.90
2023-02-14T02:18:54.704Z,16.10
2023-02-14T02:22:15.507Z,15.33
2023-02-14T02:24:56.000Z,22.07
2023-02-14T02:27:53.530Z,16.43
2023-02-14T02:31:08.832Z,17.87
2023-02-14T02:34:17.083Z,17.50
2023-02-14T02:37:10.937Z,17.63
2023-02-14T02:39:55.394Z,16.17
2023-02-14T02:42:35.069Z,17.67
2023-02-14T02:45:13.597Z,18.57
2023-02-14T02:47:50.305Z,14.23
2023-02-14T02:50:53.085Z,15.53
2023-02-14T02:53:28.444Z,14.00
2023-02-14T02:56:20.318Z,18.93
2023-02-14T02:58:55.257Z,15.00
2023-02-14T03:01:27.940Z,13.40
2023-02-14T03:04:15.836Z,14.40
2023-02-14T03:06:46.176Z,11.50
2023-02-14T03:09:57.730Z,14.00
2023-02-14T03:13:20.131Z,16.27
2023-02-14T03:16:14.263Z,12.67
2023-02-14T03:19:27.559Z,13.53
2023-02-14T03:22:02.734Z,13.07
2023-02-14T03:24:45.905Z,16.73
2023-02-14T03:27:21.064Z,13.93
2023-02-14T03:30:01.946Z,16.10
2023-02-14T03:32:37.503Z,14.07
2023-02-14T03:35:16.137Z,14.20
2023-02-14T03:37:50.680Z,16.03
2023-02-14T03:40:26.973Z,15.60
2023-02-14T03:42:59.749Z,14.50
2023-02-14T03:45:34.139Z,16.73
2023-02-14T03:48:07.778Z,14.90
2023-02-14T03:50:37.882Z,12.03
2023-02-14T03:53:08.959Z,16.13
2023-02-14T03:55:46.659Z,13.07
2023-02-14T03:58:22.291Z,10.93
2023-02-14T04:00:54.053Z,15.63
2023-02-14T04:03:26.078Z,15.43
2023-02-14T04:05:54.588Z,11.27
2023-02-14T04:08:24.592Z,17.97
2023-02-14T04:10:55.129Z,14.53
2023-02-14T04:13:23.309Z,14.57
2023-02-14T04:15:51.374Z,12.03
2023-02-14T04:18:37.170Z,11.13
2023-02-14T04:21:08.712Z,12.70
2023-02-14T04:23:36.726Z,16.03
2023-02-14T04:26:06.350Z,14.77
2023-02-14T04:28:34.852Z,15.10
2023-02-14T04:31:04.560Z,13.97
2023-02-14T04:33:32.935Z,11.80
2023-02-14T04:36:01.921Z,16.47
2023-02-14T04:38:30.103Z,15.83
2023-02-14T04:40:58.500Z,15.97
2023-02-14T04:43:27.975Z,19.30
2023-02-14T04:45:58.653Z,19.27
2023-02-14T04:48:28.418Z,19.70
2023-02-14T04:50:57.731Z,18.47
2023-02-14T04:53:25.792Z,17.77
2023-02-14T04:55:53.819Z,16.90
2023-02-14T04:58:21.825Z,17.80
2023-02-14T05:00:51.294Z,20.00
2023-02-14T05:03:19.338Z,17.97
2023-02-14T05:05:48.580Z,18.23
2023-02-14T05:08:16.622Z,18.17
2023-02-14T05:10:45.189Z,17.67
2023-02-14T05:13:13.653Z,17.43
2023-02-14T05:15:41.718Z,17.63
2023-02-14T05:18:11.078Z,18.20
2023-02-14T05:20:39.091Z,18.60
2023-02-14T05:23:13.400Z,20.60
2023-02-14T05:25:42.629Z,17.63
2023-02-14T05:28:11.121Z,14.27
2023-02-14T05:30:39.663Z,18.37
2023-02-14T05:33:08.073Z,16.00
2023-02-14T05:35:37.722Z,19.60
2023-02-14T05:38:05.736Z,17.77
2023-02-14T05:40:33.907Z,15.97
2023-02-14T05:43:01.972Z,18.63
2023-02-14T05:45:30.121Z,15.70
2023-02-14T05:47:58.152Z,20.70
2023-02-14T05:50:26.266Z,18.17
2023-02-14T05:52:56.888Z,22.27
2023-02-14T05:55:26.192Z,18.30
2023-02-14T05:57:54.272Z,18.23
2023-02-14T06:00:24.748Z,14.63
2023-02-14T06:02:52.876Z,15.13
2023-02-14T06:05:21.034Z,12.07
2023-02-14T06:07:51.182Z,18.13
2023-02-14T06:10:23.797Z,16.93
2023-02-14T06:12:53.666Z,14.90
2023-02-14T06:15:22.124Z,14.33
2023-02-14T06:17:53.963Z,15.63
2023-02-14T06:20:24.209Z,18.70
2023-02-14T06:22:53.217Z,15.00
2023-02-14T06:25:23.669Z,15.33
2023-02-14T06:27:52.270Z,17.80
2023-02-14T06:30:20.378Z,15.77
2023-02-14T06:32:48.420Z,15.90
2023-02-14T06:35:16.821Z,16.53
2023-02-14T06:37:45.337Z,15.47
2023-02-14T06:40:15.266Z,14.13
2023-02-14T06:42:44.629Z,17.73
2023-02-14T06:45:12.978Z,12.63
2023-02-14T06:47:41.114Z,16.87
2023-02-14T06:50:11.623Z,13.47
2023-02-14T06:52:42.142Z,15.57
2023-02-14T06:55:12.138Z,15.23
2023-02-14T06:57:40.320Z,16.07
2023-02-14T07:00:11.588Z,20.73
2023-02-14T07:02:39.718Z,25.93
2023-02-14T07:05:08.010Z,23.20
2023-02-14T07:07:36.028Z,20.00
2023-02-14T07:10:04.505Z,17.20
2023-02-14T07:12:32.489Z,19.50
2023-02-14T07:15:00.449Z,17.73
2023-02-14T07:17:29.844Z,15.83
2023-02-14T07:19:57.810Z,15.73
2023-02-14T07:22:25.926Z,14.40
2023-02-14T07:24:53.967Z,15.83
2023-02-14T07:27:22.095Z,14.90
2023-02-14T07:29:50.156Z,16.30
2023-02-14T07:32:18.509Z,14.70
2023-02-14T07:34:48.244Z,16.07
2023-02-14T07:37:16.718Z,16.47
2023-02-14T07:39:44.978Z,14.97
2023-02-14T07:42:13.431Z,17.30
2023-02-14T07:44:42.054Z,18.20
2023-02-14T07:47:11.241Z,15.47
2023-02-14T07:49:39.323Z,15.43
2023-02-14T07:52:08.763Z,16.00
2023-02-14T07:54:38.614Z,16.40
2023-02-14T07:57:07.170Z,18.13
2023-02-14T07:59:35.527Z,17.63
2023-02-14T08:02:03.772Z,16.63
2023-02-14T08:04:33.818Z,15.00
2023-02-14T08:07:01.953Z,16.10
2023-02-14T08:09:31.610Z,19.70
2023-02-14T08:12:18.270Z,15.97
2023-02-14T08:14:46.995Z,17.83
2023-02-14T08:17:15.482Z,16.27
2023-02-14T08:19:43.483Z,21.20
2023-02-14T08:22:11.526Z,19.20
2023-02-14T08:24:40.863Z,16.30
2023-02-14T08:27:08.882Z,18.73
2023-02-14T08:29:38.838Z,20.10
2023-02-14T08:32:07.238Z,15.40
2023-02-14T08:34:35.250Z,24.70
2023-02-14T08:37:03.336Z,14.57
2023-02-14T08:39:32.951Z,20.73
2023-02-14T08:42:02.336Z,20.60
2023-02-14T08:44:30.353Z,17.13
2023-02-14T08:46:58.672Z,18.00
2023-02-14T08:49:27.018Z,18.47
2023-02-14T08:51:55.260Z,19.70
2023-02-14T08:54:23.335Z,16.40
2023-02-14T08:56:51.626Z,18.20
2023-02-14T08:59:21.063Z,16.57
2023-02-14T09:01:53.467Z,17.17
2023-02-14T09:04:24.146Z,16.27
2023-02-14T09:06:52.280Z,15.50
2023-02-14T09:09:20.597Z,16.83
2023-02-14T09:11:48.662Z,16.80
2023-02-14T09:14:17.262Z,18.00
2023-02-14T09:16:46.723Z,18.03
2023-02-14T09:19:14.910Z,18.33
2023-02-14T09:21:42.990Z,17.50
2023-02-14T09:24:11.473Z,17.33
2023-02-14T09:26:42.081Z,15.53
2023-02-14T09:29:13.653Z,15.50
2023-02-14T09:31:41.754Z,19.43
2023-02-14T09:34:11.231Z,17.97
2023-02-14T09:36:39.279Z,16.53
2023-02-14T09:39:07.543Z,17.23
2023-02-14T09:42:10.175Z,16.13
2023-02-14T09:44:42.663Z,17.03
2023-02-14T09:47:23.032Z,15.60
2023-02-14T09:49:54.123Z,17.73
2023-02-14T09:52:27.796Z,18.77
2023-02-14T09:54:59.249Z,17.53
2023-02-14T09:57:39.981Z,16.10
2023-02-14T10:00:21.543Z,18.10
2023-02-14T10:03:09.810Z,17.47
2023-02-14T10:05:49.486Z,14.40
2023-02-14T10:08:33.756Z,16.33
2023-02-14T10:11:08.501Z,14.90
2023-02-14T10:13:42.176Z,17.10
2023-02-14T10:16:27.125Z,17.70
2023-02-14T10:19:01.406Z,16.63
2023-02-14T10:21:41.970Z,14.30
2023-02-14T10:24:17.481Z,17.50
2023-02-14T10:26:49.277Z,15.53
2023-02-14T10:29:20.688Z,16.33
2023-02-14T10:31:57.878Z,21.33
2023-02-14T10:34:36.960Z,15.10
2023-02-14T10:37:25.557Z,15.43
2023-02-14T10:40:17.573Z,19.13
2023-02-14T10:42:55.098Z,14.93
2023-02-14T10:45:33.270Z,14.70
2023-02-14T10:48:16.552Z,13.17
2023-02-14T10:50:53.761Z,16.27
2023-02-14T10:53:29.338Z,16.87
2023-02-14T10:56:04.636Z,15.83
2023-02-14T10:58:37.526Z,20.10
2023-02-14T11:01:12.061Z,19.23
2023-02-14T11:03:53.779Z,17.70
2023-02-14T11:06:22.290Z,17.70
2023-02-14T11:08:51.756Z,17.23
2023-02-14T11:11:30.252Z,18.57
2023-02-14T11:13:58.438Z,18.83
2023-02-14T11:16:35.018Z,19.30
2023-02-14T11:19:21.059Z,19.20
2023-02-14T11:21:51.497Z,18.80
2023-02-14T11:24:31.573Z,21.10
2023-02-14T11:27:03.269Z,18.27
2023-02-14T11:29:34.835Z,17.77
2023-02-14T11:32:10.198Z,23.00
2023-02-14T11:34:41.818Z,22.47
2023-02-14T11:37:27.781Z,20.83
2023-02-14T11:40:01.471Z,24.73
2023-02-14T11:42:43.437Z,21.10
2023-02-14T11:45:35.050Z,17.50
2023-02-14T11:48:34.890Z,20.00
2023-02-14T11:51:09.134Z,19.73
2023-02-14T11:53:45.977Z,22.30
2023-02-14T11:56:16.602Z,22.27
2023-02-14T11:58:55.347Z,18.93
2023-02-14T12:01:27.626Z,20.37
2023-02-14T12:04:00.716Z,18.60
2023-02-14T12:06:32.343Z,23.77
2023-02-14T12:09:13.709Z,18.70
2023-02-14T12:11:54.866Z,19.47
2023-02-14T12:14:25.599Z,18.57
2023-02-14T12:17:01.523Z,20.70
2023-02-14T12:19:38.191Z,19.63
2023-02-14T12:22:07.780Z,23.03
2023-02-14T12:24:42.397Z,23.20
2023-02-14T12:27:22.445Z,22.33
2023-02-14T12:29:54.770Z,26.20
2023-02-14T12:32:25.984Z,20.30
2023-02-14T12:35:01.778Z,20.10
2023-02-14T12:37:48.778Z,21.87
2023-02-14T12:40:28.833Z,19.20
2023-02-14T12:43:47.826Z,19.77
2023-02-14T12:46:35.083Z,20.97
2023-02-14T12:49:32.546Z,18.77
2023-02-14T12:52:14.158Z,21.17
2023-02-14T12:54:59.674Z,19.37
2023-02-14T12:57:41.440Z,20.27
2023-02-14T13:00:29.745Z,22.53
2023-02-14T13:03:48.852Z,20.70
2023-02-14T13:06:25.468Z,21.23
2023-02-14T13:09:13.718Z,25.97
2023-02-14T13:11:58.598Z,21.33
2023-02-14T13:14:57.714Z,20.47
2023-02-14T13:17:36.935Z,20.57
2023-02-14T13:20:25.844Z,20.53
2023-02-14T13:22:56.789Z,20.13
2023-02-14T13:25:31.754Z,20.77
2023-02-14T13:28:02.387Z,21.97
2023-02-14T13:30:33.735Z,21.23
2023-02-14T13:33:09.259Z,20.63
2023-02-14T13:35:38.513Z,19.10
2023-02-14T13:38:13.404Z,18.93
2023-02-14T13:40:42.175Z,24.23
2023-02-14T13:43:10.212Z,16.70
2023-02-14T13:45:55.797Z,19.50
2023-02-14T13:48:28.523Z,22.00
2023-02-14T13:50:59.991Z,22.30
2023-02-14T13:53:39.427Z,22.10
2023-02-14T13:56:35.772Z,20.00
2023-02-14T13:59:06.949Z,20.37
2023-02-14T14:01:40.447Z,16.47
2023-02-14T14:04:38.349Z,17.43
2023-02-14T14:07:27.053Z,19.53
2023-02-14T14:10:04.290Z,19.80
2023-02-14T14:12:40.773Z,18.20
2023-02-14T14:15:22.121Z,21.83
2023-02-14T14:18:38.371Z,19.77
2023-02-14T14:21:23.838Z,17.93
2023-02-14T14:24:13.432Z,21.83
2023-02-14T14:26:44.833Z,17.27
2023-02-14T14:29:20.268Z,21.40
2023-02-14T14:31:55.281Z,20.37
2023-02-14T14:34:26.027Z,18.33
2023-02-14T14:37:05.499Z,22.40
2023-02-14T14:39:39.748Z,22.27
2023-02-14T14:42:10.675Z,22.30
2023-02-14T14:44:46.150Z,24.93
2023-02-14T14:47:20.775Z,20.30
2023-02-14T14:49:49.570Z,20.47
2023-02-14T14:52:35.372Z,20.17
2023-02-14T14:55:05.758Z,20.03
2023-02-14T14:57:36.120Z,19.17
2023-02-14T15:00:20.412Z,19.03
2023-02-14T15:03:05.609Z,17.23
2023-02-14T15:05:36.705Z,21.13
2023-02-14T15:08:33.609Z,21.73
2023-02-14T15:11:07.450Z,19.13
2023-02-14T15:13:50.465Z,21.10
2023-02-14T15:16:22.052Z,24.57
2023-02-14T15:18:52.128Z,19.70
2023-02-14T15:21:20.430Z,20.57
2023-02-14T15:23:50.349Z,17.37
2023-02-14T15:26:24.133Z,16.20
2023-02-14T15:28:58.058Z,19.23
2023-02-14T15:31:32.281Z,22.03
2023-02-14T15:34:02.800Z,22.70
2023-02-14T15:36:33.195Z,22.57
2023-02-14T15:39:06.611Z,19.07
2023-02-14T15:41:34.691Z,18.80
2023-02-14T15:44:02.698Z,22.37
2023-02-14T15:46:36.509Z,24.00
2023-02-14T15:49:11.420Z,24.33
2023-02-14T15:51:40.710Z,20.07
2023-02-14T15:54:21.886Z,26.27
2023-02-14T15:56:53.220Z,18.20
2023-02-14T15:59:23.752Z,19.53
2023-02-14T16:01:56.563Z,21.83
2023-02-14T16:04:26.595Z,23.80
2023-02-14T16:07:22.399Z,21.60
2023-02-14T16:10:20.544Z,20.50
2023-02-14T16:13:01.177Z,18.17
2023-02-14T16:15:33.287Z,19.37
2023-02-14T16:18:06.937Z,19.07
2023-02-14T16:20:45.179Z,21.83
2023-02-14T16:23:26.869Z,18.33
2023-02-14T16:25:58.216Z,20.77
2023-02-14T16:28:30.918Z,23.37
2023-02-14T16:31:02.802Z,20.13
2023-02-14T16:33:35.162Z,17.77
2023-02-14T16:36:09.214Z,19.27
2023-02-14T16:38:43.808Z,18.87
2023-02-14T16:41:22.192Z,19.90
2023-02-14T16:43:51.247Z,20.77
2023-02-14T16:46:23.120Z,21.90
2023-02-14T16:48:52.528Z,22.60
2023-02-14T16:51:23.438Z,19.93
2023-02-14T16:53:52.229Z,25.33
2023-02-14T16:56:24.907Z,18.20
2023-02-14T16:58:52.985Z,19.23
2023-02-14T17:01:21.048Z,21.13
2023-02-14T17:03:49.046Z,23.17
2023-02-14T17:06:27.345Z,17.87
2023-02-14T17:08:57.492Z,19.60
2023-02-14T17:11:31.811Z,20.60
2023-02-14T17:14:00.274Z,22.30
2023-02-14T17:16:30.560Z,19.57
2023-02-14T17:18:58.970Z,19.67
2023-02-14T17:21:26.954Z,21.27
2023-02-14T17:23:55.554Z,18.50
2023-02-14T17:26:23.791Z,21.00
2023-02-14T17:28:53.148Z,30.27
2023-02-14T17:31:21.459Z,21.90
2023-02-14T17:33:49.530Z,28.57
2023-02-14T17:36:17.666Z,26.60
2023-02-14T17:38:45.652Z,22.07
2023-02-14T17:41:16.826Z,19.33
2023-02-14T17:43:44.996Z,27.27
2023-02-14T17:46:15.865Z,20.47
2023-02-14T17:48:45.391Z,23.13
2023-02-14T17:51:16.094Z,24.93
2023-02-14T17:53:44.848Z,19.17
2023-02-14T17:56:21.109Z,20.03
2023-02-14T17:58:51.660Z,23.87
2023-02-14T18:01:23.735Z,19.80
2023-02-14T18:03:52.471Z,20.67
2023-02-14T18:06:21.546Z,23.50
2023-02-14T18:08:53.604Z,20.63
2023-02-14T18:11:22.538Z,25.13
2023-02-14T18:13:51.324Z,23.43
2023-02-14T18:16:20.813Z,24.57
2023-02-14T18:18:49.187Z,25.30
2023-02-14T18:21:20.815Z,24.17
2023-02-14T18:23:49.182Z,20.87
2023-02-14T18:26:18.954Z,21.67
2023-02-14T18:28:47.028Z,27.93
2023-02-14T18:31:18.001Z,21.80
2023-02-14T18:33:49.682Z,23.13
2023-02-14T18:36:21.697Z,21.67
2023-02-14T18:38:50.667Z,24.53
2023-02-14T18:41:20.604Z,24.83
2023-02-14T18:43:49.882Z,20.40
2023-02-14T18:46:21.356Z,22.50
2023-02-14T18:48:51.816Z,19.97
2023-02-14T18:51:22.573Z,23.20
2023-02-14T18:53:52.742Z,22.20
2023-02-14T18:56:23.534Z,31.40
2023-02-14T18:58:56.466Z,18.90
2023-02-14T19:01:29.493Z,22.97
2023-02-14T19:04:01.081Z,22.33
2023-02-14T19:06:31.899Z,22.83
2023-02-14T19:09:01.489Z,22.50
2023-02-14T19:11:32.930Z,21.90
2023-02-14T19:14:05.183Z,24.03
2023-02-14T19:16:36.676Z,21.53
2023-02-14T19:19:06.427Z,19.97
2023-02-14T19:21:36.638Z,19.67
2023-02-14T19:24:07.829Z,19.80
2023-02-14T19:26:40.738Z,22.43
2023-02-14T19:29:12.419Z,22.17
2023-02-14T19:31:43.960Z,19.80
2023-02-14T19:34:19.145Z,19.70
2023-02-14T19:36:48.187Z,18.93
2023-02-14T19:39:17.177Z,20.57
2023-02-14T19:41:46.365Z,23.30
2023-02-14T19:44:16.994Z,18.43
2023-02-14T19:46:47.715Z,21.57
2023-02-14T19:49:20.382Z,21.83
2023-02-14T19:51:51.080Z,24.90
2023-02-14T19:54:19.636Z,21.40
2023-02-14T19:56:48.885Z,19.90
2023-02-14T19:59:21.713Z,21.97
2023-02-14T20:01:52.182Z,22.47
2023-02-14T20:04:23.737Z,18.47
2023-02-14T20:06:53.370Z,26.30
2023-02-14T20:09:22.761Z,26.50
2023-02-14T20:11:54.292Z,40.07
2023-02-14T20:14:24.973Z,30.47
2023-02-14T20:16:55.367Z,34.17
2023-02-14T20:19:27.935Z,25.90
2023-02-14T20:21:56.114Z,22.73
2023-02-14T20:24:26.905Z,23.90
2023-02-14T20:26:56.231Z,19.67
2023-02-14T20:29:26.370Z,24.30
2023-02-14T20:31:58.038Z,23.37
2023-02-14T20:34:28.003Z,24.63
2023-02-14T20:36:56.381Z,22.50
2023-02-14T20:39:30.420Z,18.47
2023-02-14T20:41:58.515Z,22.07
2023-02-14T20:44:27.069Z,19.73
2023-02-14T20:46:56.829Z,21.53
2023-02-14T20:49:29.826Z,21.40
2023-02-14T20:51:58.456Z,19.60
2023-02-14T20:54:29.085Z,22.90
2023-02-14T20:56:58.395Z,20.27
2023-02-14T20:59:28.483Z,23.70
2023-02-14T21:01:58.557Z,22.47
2023-02-14T21:04:29.479Z,24.00
2023-02-14T21:07:00.112Z,25.97
2023-02-14T21:09:28.307Z,24.00
2023-02-14T21:11:57.961Z,22.40
2023-02-14T21:14:26.125Z,24.67
2023-02-14T21:16:54.152Z,20.63
2023-02-14T21:19:22.336Z,22.90
2023-02-14T21:21:51.813Z,22.73
2023-02-14T21:24:19.898Z,22.90
2023-02-14T21:26:47.904Z,24.33
2023-02-14T21:29:15.923Z,22.17
2023-02-14T21:31:44.037Z,19.80
2023-02-14T21:34:12.296Z,20.43
2023-02-14T21:36:40.322Z,21.60
2023-02-14T21:39:09.676Z,24.70
2023-02-14T21:41:38.356Z,22.27
2023-02-14T21:44:07.149Z,21.13
2023-02-14T21:46:38.717Z,22.30
2023-02-14T21:49:25.406Z,20.47
2023-02-14T21:51:53.654Z,21.73
2023-02-14T21:54:22.990Z,23.70
2023-02-14T21:56:51.123Z,20.30
2023-02-14T21:59:19.219Z,26.67
2023-02-14T22:01:47.436Z,23.07
2023-02-14T22:04:15.566Z,20.00
2023-02-14T22:06:44.226Z,21.10
2023-02-14T22:09:17.312Z,22.60
2023-02-14T22:11:47.478Z,22.43
2023-02-14T22:14:15.907Z,23.37
2023-02-14T22:16:43.916Z,20.97
2023-02-14T22:19:15.778Z,23.10
2023-02-14T22:21:44.341Z,23.10
2023-02-14T22:24:12.683Z,22.50
2023-02-14T22:26:41.560Z,17.23
2023-02-14T22:29:13.417Z,24.20
2023-02-14T22:31:43.927Z,22.43
2023-02-14T22:34:14.971Z,20.53
2023-02-14T22:36:43.088Z,22.90
2023-02-14T22:39:14.170Z,21.03
2023-02-14T22:41:42.203Z,21.67
2023-02-14T22:44:13.390Z,22.63
2023-02-14T22:46:41.814Z,19.10
2023-02-14T22:49:09.936Z,22.67
2023-02-14T22:51:41.222Z,20.53
2023-02-14T22:54:13.448Z,20.43
2023-02-14T22:56:44.371Z,23.80
2023-02-14T22:59:19.436Z,24.33
2023-02-14T23:01:48.620Z,23.93
2023-02-14T23:04:18.540Z,21.67
2023-02-14T23:06:46.815Z,17.63
2023-02-14T23:09:16.295Z,19.90
2023-02-14T23:11:47.015Z,20.33
2023-02-14T23:14:35.820Z,20.57
2023-02-14T23:17:22.477Z,17.97
2023-02-14T23:20:07.958Z,22.27
2023-02-14T23:22:38.731Z,22.37
2023-02-14T23:25:09.476Z,22.53
2023-02-14T23:27:40.731Z,20.40
2023-02-14T23:30:15.027Z,18.40
2023-02-14T23:32:43.605Z,22.43
2023-02-14T23:35:11.875Z,20.33
2023-02-14T23:37:40.078Z,23.70
2023-02-14T23:40:10.229Z,21.57
2023-02-14T23:42:38.448Z,19.83
2023-02-14T23:45:25.205Z,19.57
2023-02-14T23:47:54.630Z,20.60
2023-02-14T23:50:22.681Z,19.47
2023-02-14T23:52:50.740Z,20.77
2023-02-14T23:55:18.928Z,23.60
2023-02-14T23:57:47.020Z,21.53
